Flight Track Log - Related Links

Times and Time Zones

All times are in EDT time to prevent confusion due to time zone crossing. See the N251NG flight status page for this flight to view local times or setup timezone preferences in your user account.

Time Position Orientation Groundspeed Altitude Reporting Facility
EDT Latitude Longitude Course Direction KTS MPH feet Rate Location/Type
Mon 09:12:35 AM 37.1181 -84.1250 329° Northwest 151 174 3,600  Level Indianapolis Center
Mon 09:13:37 AM 37.1625 -84.1367 348° North 162 186 5,500 1,790 Climbing Indianapolis Center
Mon 09:14:39 AM 37.2100 -84.1394 357° North 167 192 7,300 1,756 Climbing Indianapolis Center
Mon 09:15:40 AM 37.2592 -84.1439 356° North 173 199 9,100 1,756 Climbing Indianapolis Center
Mon 09:16:00 AM 37.3967 -84.1000 North  Level FlightAware Approximate
Mon 09:16:42 AM 37.3072 -84.1475 357° North 173 199 10,900  Level Indianapolis Center
Mon 09:17:44 AM 37.3642 -84.1533 355° North 175 201 12,800 1,597 Climbing Indianapolis Center
Mon 09:18:46 AM 37.4147 -84.1572 357° North 180 207 14,200 1,403 Climbing Indianapolis Center
Mon 09:19:48 AM 37.4661 -84.1628 355° North 184 212 15,700 1,355 Climbing Indianapolis Center
Mon 09:20:50 AM 37.5181 -84.1672 356° North 185 213 17,000 1,161 Climbing Indianapolis Center
Mon 09:21:52 AM 37.5706 -84.1711 357° North 188 216 18,100 1,073 Climbing Indianapolis Center
Mon 09:22:53 AM 37.6247 -84.1761 356° North 193 222 19,200 1,220 Climbing Indianapolis Center
Mon 09:23:55 AM 37.6883 -84.1831 355° North 194 223 20,600 1,161 Climbing Indianapolis Center
Mon 09:24:57 AM 37.7444 -84.1872 357° North 198 228 21,600 968 Climbing Indianapolis Center
Mon 09:25:59 AM 37.8008 -84.1919 356° North 200 230 22,600 968 Climbing Indianapolis Center
Mon 09:27:01 AM 37.8564 -84.1975 355° North 201 231 23,600 919 Climbing Indianapolis Center
Mon 09:28:03 AM 37.9114 -84.2017 357° North 200 230 24,500 677 Climbing Indianapolis Center
Mon 09:29:05 AM 37.9686 -84.2075 355° North 205 236 25,000 242 Climbing Indianapolis Center
Mon 09:30:07 AM 38.0444 -84.2122 357° North 235 270 25,000  Level Indianapolis Center
Mon 09:31:09 AM 38.1147 -84.2200 355° North 252 290 25,000  Level Indianapolis Center
Mon 09:32:11 AM 38.1867 -84.2253 357° North 258 297 25,000  Level Indianapolis Center
Mon 09:33:13 AM 38.2592 -84.2331 355° North 261 300 25,000  Level Indianapolis Center
Mon 09:34:15 AM 38.3314 -84.2389 356° North 261 300 25,000  Level Indianapolis Center
Mon 09:35:17 AM 38.4047 -84.2456 356° North 262 302 25,000  Level Indianapolis Center
Mon 09:36:19 AM 38.4897 -84.2539 356° North 262 302 25,000  Level Indianapolis Center
Mon 09:37:21 AM 38.5628 -84.2600 356° North 263 303 25,000  Level Indianapolis Center
Mon 09:38:23 AM 38.6353 -84.2678 355° North 261 300 25,000  Level Indianapolis Center
Mon 09:39:25 AM 38.7100 -84.2747 356° North 266 306 25,000  Level Indianapolis Center
Mon 09:40:27 AM 38.7839 -84.2806 356° North 265 305 25,000  Level Indianapolis Center
Mon 09:41:29 AM 38.8575 -84.2875 356° North 263 303 25,000  Level Indianapolis Center
Mon 09:42:31 AM 38.9436 -84.2950 356° North 264 304 25,000  Level Indianapolis Center
Mon 09:43:33 AM 39.0175 -84.3022 356° North 264 304 25,000  Level Indianapolis Center
Mon 09:44:35 AM 39.0919 -84.3092 356° North 265 305 25,000  Level Indianapolis Center
Mon 09:45:37 AM 39.1661 -84.3153 356° North 266 306 25,000  Level Indianapolis Center
Mon 09:46:39 AM 39.2406 -84.3239 355° North 264 304 25,000  Level Indianapolis Center
Mon 09:47:41 AM 39.3164 -84.3308 356° North 268 308 25,000  Level Indianapolis Center
Mon 09:48:43 AM 39.3914 -84.3381 356° North 268 308 25,000  Level Indianapolis Center
Mon 09:49:45 AM 39.4656 -84.3450 356° North 266 306 25,000  Level Indianapolis Center
Mon 09:50:47 AM 39.5528 -84.3528 356° North 266 306 25,000  Level Indianapolis Center
Mon 09:51:49 AM 39.6292 -84.3597 356° North 269 310 25,000  Level Indianapolis Center
Mon 09:52:52 AM 39.7053 -84.3669 356° North 272 313 25,000  Level Indianapolis Center
Mon 09:53:54 AM 39.7800 -84.3739 356° North 268 308 25,000  Level Indianapolis Center
Mon 09:54:56 AM 39.8553 -84.3819 355° North 268 308 25,000 -97 Level Indianapolis Center
Mon 09:55:58 AM 39.9297 -84.3875 357° North 266 306 24,800 -484 Descending Indianapolis Center
Mon 09:57:00 AM 40.0044 -84.3961 355° North 266 306 24,000 -726 Descending Indianapolis Center
Mon 09:58:02 AM 40.0803 -84.3878 North 269 310 23,300 -677 Descending Indianapolis Center
Mon 09:59:04 AM 40.1519 -84.3753 North 262 302 22,600 -823 Descending Indianapolis Center
Mon 10:00:06 AM 40.2378 -84.3617 North 261 300 21,600 -774 Descending Indianapolis Center
Mon 10:01:08 AM 40.3094 -84.3500 North 256 295 21,000 -290 Descending Indianapolis Center
Mon 10:02:10 AM 40.3778 -84.3386 North 247 284 21,000  Level Indianapolis Center
Mon 10:03:12 AM 40.4506 -84.3256 North 260 299 21,000  Level Indianapolis Center
Mon 10:04:14 AM 40.5228 -84.3158 North 257 296 21,000 -387 Level Indianapolis Center
Mon 10:05:16 AM 40.5942 -84.3025 North 257 296 20,200 -726 Descending Indianapolis Center
Mon 10:06:18 AM 40.6656 -84.2914 North 256 295 19,500 -823 Descending Indianapolis Center
Mon 10:07:20 AM 40.7492 -84.2783 North 255 293 18,500 -1,258 Descending Indianapolis Center
Mon 10:08:22 AM 40.8231 -84.2656 North 265 305 16,900 -774 Descending Indianapolis Center
Mon 10:09:24 AM 40.8978 -84.2528 North 268 308 16,900  Level Indianapolis Center
Mon 10:10:22 AM 40.9694 -84.2408 North 260 299 16,900 -458 Level Cleveland Center
Mon 10:11:22 AM 41.0428 -84.2286 North 260 299 16,000 -1,350 Descending Cleveland Center
Mon 10:12:22 AM 41.1161 -84.2186 North 260 299 14,200 -1,750 Descending Cleveland Center
Mon 10:13:22 AM 41.1875 -84.2061 North 255 293 12,500 -1,750 Descending Cleveland Center
Mon 10:14:22 AM 41.2547 -84.1933 North 255 293 10,700 -1,900 Descending Cleveland Center
Mon 10:15:22 AM 41.2925 -84.1181 56° Northeast 226 260 8,700 -1,850 Descending Cleveland Center
Mon 10:16:22 AM 41.3203 -84.0256 68° East 232 267 7,000 -1,750 Descending Cleveland Center
Mon 10:17:22 AM 41.3500 -83.9414 65° Northeast 237 273 5,200 -1,500 Descending Cleveland Center
Mon 10:18:22 AM 41.3753 -83.8597 68° East 242 278 4,000 -600 Descending Cleveland Center
Mon 10:19:22 AM 41.4003 -83.7833 66° East 232 267 4,000  Level Cleveland Center
Mon 10:20:22 AM 41.4336 -83.7131 58° Northeast 227 261 4,000  Level Cleveland Center
Mon 10:22:00 AM 41.4765 -83.6730 312° West  Level FlightAware Approximate
Mon 10:29:00 AM 41.5833 -83.8000 312° West  Level FlightAware Approximate
Mon 10:30:00 AM 41.5868 -83.8078 312° West  Level Estimated
Mon 10:31:00 AM 41.5833 -83.8000 312° West  Level FlightAware Approximate
Mon 10:32:00 AM 41.5868 -83.8078 312° West  Level Estimated
Mon 10:33:00 AM 41.5833 -83.8000 312° West  Level FlightAware Approximate
Mon 10:34:00 AM 41.5868 -83.8078 312° West  Level Estimated

Login

Don't have an account? Register now (free) for customized features, flight alerts, and more!